createdAt,value
2019-03-05T00:00:39.587Z,7.16
2019-03-05T00:03:09.771Z,7.16
2019-03-05T00:05:40.248Z,7.20
2019-03-05T00:08:10.599Z,7.20
2019-03-05T00:10:40.825Z,7.20
2019-03-05T00:13:11.520Z,7.19
2019-03-05T00:15:42.379Z,7.18
2019-03-05T00:18:12.715Z,7.20
2019-03-05T00:20:42.940Z,7.23
2019-03-05T00:23:14.307Z,7.27
2019-03-05T00:25:44.498Z,7.27
2019-03-05T00:28:37.602Z,7.30
2019-03-05T00:31:15.532Z,7.32
2019-03-05T00:34:26.763Z,7.31
2019-03-05T00:37:04.155Z,7.29
2019-03-05T00:40:01.632Z,7.31
2019-03-05T00:43:03.696Z,7.29
2019-03-05T00:46:04.960Z,7.27
2019-03-05T00:49:11.638Z,7.26
2019-03-05T00:52:02.591Z,7.28
2019-03-05T00:55:11.817Z,7.26
2019-03-05T00:58:08.506Z,7.29
2019-03-05T01:00:55.210Z,7.27
2019-03-05T01:03:45.189Z,7.29
2019-03-05T01:06:17.211Z,7.27
2019-03-05T01:08:47.387Z,7.25
2019-03-05T01:11:18.198Z,7.24
2019-03-05T01:13:49.034Z,7.22
2019-03-05T01:16:22.771Z,7.19
2019-03-05T01:18:53.760Z,7.20
2019-03-05T01:21:23.907Z,7.16
2019-03-05T01:23:54.342Z,7.15
2019-03-05T01:26:24.709Z,7.13
2019-03-05T01:28:55.214Z,7.14
2019-03-05T01:31:33.811Z,7.14
2019-03-05T01:34:18.256Z,7.13
2019-03-05T01:36:52.305Z,7.14
2019-03-05T01:39:46.400Z,7.12
2019-03-05T01:42:20.106Z,7.12
2019-03-05T01:44:50.299Z,7.13
2019-03-05T01:47:21.375Z,7.13
2019-03-05T01:49:52.189Z,7.14
2019-03-05T01:52:23.194Z,7.13
2019-03-05T01:54:55.867Z,7.16
2019-03-05T01:57:26.121Z,7.16
2019-03-05T01:59:56.756Z,7.15
2019-03-05T02:02:27.113Z,7.14
2019-03-05T02:04:57.289Z,7.14
2019-03-05T02:07:30.546Z,7.12
2019-03-05T02:10:02.179Z,7.12
2019-03-05T02:12:32.371Z,7.11
2019-03-05T02:15:02.554Z,7.09
2019-03-05T02:17:33.124Z,7.07
2019-03-05T02:20:03.875Z,7.09
2019-03-05T02:22:57.454Z,7.11
2019-03-05T02:26:26.296Z,7.11
2019-03-05T02:29:20.290Z,7.10
2019-03-05T02:32:37.520Z,7.09
2019-03-05T02:35:16.363Z,7.10
2019-03-05T02:38:27.644Z,7.11
2019-03-05T02:41:22.303Z,7.16
2019-03-05T02:44:29.581Z,7.18
2019-03-05T02:47:25.270Z,7.18
2019-03-05T02:50:44.961Z,7.17
2019-03-05T02:53:31.503Z,7.14
2019-03-05T02:56:29.004Z,7.10
2019-03-05T02:58:57.662Z,7.10
2019-03-05T03:01:35.288Z,7.08
2019-03-05T03:04:09.424Z,7.08
2019-03-05T03:06:39.886Z,7.06
2019-03-05T03:10:06.501Z,7.05
2019-03-05T03:12:36.988Z,7.02
2019-03-05T03:15:10.447Z,6.99
2019-03-05T03:17:40.748Z,6.98
2019-03-05T03:20:12.181Z,6.98
2019-03-05T03:22:42.979Z,6.94
2019-03-05T03:25:18.574Z,6.90
2019-03-05T03:27:48.853Z,6.88
2019-03-05T03:30:24.124Z,6.88
2019-03-05T03:32:54.640Z,6.84
2019-03-05T03:35:25.220Z,6.88
2019-03-05T03:37:55.796Z,6.86
2019-03-05T03:40:26.384Z,6.87
2019-03-05T03:42:56.829Z,6.85
2019-03-05T03:45:28.054Z,6.87
2019-03-05T03:47:58.648Z,6.87
2019-03-05T03:50:28.977Z,6.87
2019-03-05T03:53:00.064Z,6.86
2019-03-05T03:55:30.337Z,6.90
2019-03-05T03:58:00.931Z,6.89
2019-03-05T04:00:31.216Z,6.90
2019-03-05T04:03:01.549Z,6.92
2019-03-05T04:05:32.431Z,6.93
2019-03-05T04:08:02.762Z,6.97
2019-03-05T04:10:33.086Z,6.99
2019-03-05T04:13:03.645Z,7.01
2019-03-05T04:15:34.545Z,7.04
2019-03-05T04:18:04.812Z,7.03
2019-03-05T04:20:40.896Z,7.06
2019-03-05T04:23:11.578Z,7.08
2019-03-05T04:25:41.812Z,7.07
2019-03-05T04:28:12.123Z,7.07
2019-03-05T04:30:42.375Z,7.05
2019-03-05T04:33:13.196Z,7.03
2019-03-05T04:35:43.455Z,7.03
2019-03-05T04:38:13.955Z,7.04
2019-03-05T04:40:44.184Z,7.05
2019-03-05T04:43:14.492Z,7.05
2019-03-05T04:45:55.404Z,7.09
2019-03-05T04:48:26.286Z,7.10
2019-03-05T04:50:59.427Z,7.09
2019-03-05T04:53:30.010Z,7.10
2019-03-05T04:56:00.926Z,7.06
2019-03-05T04:58:31.118Z,7.05
2019-03-05T05:01:01.821Z,7.04
2019-03-05T05:03:32.211Z,7.05
2019-03-05T05:06:02.710Z,7.02
2019-03-05T05:08:33.307Z,7.04
2019-03-05T05:11:03.851Z,7.01
2019-03-05T05:13:34.311Z,7.03
2019-03-05T05:16:04.912Z,7.02
2019-03-05T05:18:35.596Z,7.01
2019-03-05T05:21:06.126Z,6.99
2019-03-05T05:23:36.552Z,7.00
2019-03-05T05:26:06.809Z,7.01
2019-03-05T05:28:37.871Z,7.02
2019-03-05T05:31:08.548Z,7.01
2019-03-05T05:33:38.733Z,7.03
2019-03-05T05:36:08.968Z,7.01
2019-03-05T05:38:39.346Z,7.01
2019-03-05T05:41:09.947Z,7.01
2019-03-05T05:43:40.273Z,7.00
2019-03-05T05:46:10.860Z,6.99
2019-03-05T05:48:41.625Z,6.95
2019-03-05T05:51:12.104Z,6.93
2019-03-05T05:53:42.846Z,6.92
2019-03-05T05:56:13.356Z,6.94
2019-03-05T05:58:43.615Z,6.89
2019-03-05T06:01:14.103Z,6.84
2019-03-05T06:03:44.585Z,6.82
2019-03-05T06:06:15.839Z,6.82
2019-03-05T06:08:46.545Z,6.81
2019-03-05T06:11:17.378Z,6.79
2019-03-05T06:13:48.533Z,6.79
2019-03-05T06:16:18.763Z,6.78
2019-03-05T06:18:49.270Z,6.79
2019-03-05T06:21:19.448Z,6.77
2019-03-05T06:23:49.688Z,6.79
2019-03-05T06:26:20.971Z,6.76
2019-03-05T06:28:51.724Z,6.74
2019-03-05T06:31:22.494Z,6.75
2019-03-05T06:33:53.097Z,6.69
2019-03-05T06:36:23.353Z,6.69
2019-03-05T06:38:53.672Z,6.67
2019-03-05T06:41:24.387Z,6.65
2019-03-05T06:43:54.631Z,6.66
2019-03-05T06:46:25.272Z,6.70
2019-03-05T06:48:56.404Z,6.74
2019-03-05T06:51:27.545Z,6.77
2019-03-05T06:53:58.043Z,6.74
2019-03-05T06:56:28.536Z,6.79
2019-03-05T06:58:59.245Z,6.77
2019-03-05T07:01:30.693Z,6.79
2019-03-05T07:04:01.635Z,6.78
2019-03-05T07:06:51.863Z,6.75
2019-03-05T07:10:04.440Z,6.71
2019-03-05T07:13:16.608Z,6.66
2019-03-05T07:16:10.117Z,6.65
2019-03-05T07:18:56.101Z,6.68
2019-03-05T07:21:57.052Z,6.75
2019-03-05T07:24:38.817Z,6.79
2019-03-05T07:27:10.467Z,6.76
2019-03-05T07:29:41.647Z,6.81
2019-03-05T07:32:11.889Z,6.87
2019-03-05T07:34:45.012Z,6.95
2019-03-05T07:37:15.570Z,6.93
2019-03-05T07:39:45.782Z,6.95
2019-03-05T07:42:15.987Z,6.91
2019-03-05T07:44:46.227Z,6.90
2019-03-05T07:47:16.543Z,6.88
2019-03-05T07:49:46.840Z,6.83
2019-03-05T07:52:18.612Z,6.84
2019-03-05T07:54:48.891Z,6.85
2019-03-05T07:57:19.504Z,6.91
2019-03-05T07:59:50.019Z,6.91
2019-03-05T08:02:21.172Z,6.98
2019-03-05T08:04:51.997Z,6.97
2019-03-05T08:07:22.224Z,6.98
2019-03-05T08:09:52.493Z,6.99
2019-03-05T08:12:46.829Z,7.05
2019-03-05T08:16:23.304Z,6.99
2019-03-05T08:18:54.153Z,6.99
2019-03-05T08:21:24.451Z,7.00
2019-03-05T08:23:54.694Z,7.06
2019-03-05T08:26:24.895Z,7.13
2019-03-05T08:28:55.840Z,7.14
2019-03-05T08:31:26.493Z,7.20
2019-03-05T08:33:57.192Z,7.27
2019-03-05T08:36:27.529Z,7.33
2019-03-05T08:38:58.073Z,7.38
2019-03-05T08:41:28.941Z,7.40
2019-03-05T08:43:59.149Z,7.39
2019-03-05T08:46:29.464Z,7.28
2019-03-05T08:48:59.687Z,7.29
2019-03-05T08:51:29.954Z,7.28
2019-03-05T08:54:00.728Z,7.16
2019-03-05T08:56:33.922Z,7.13
2019-03-05T08:59:04.509Z,7.02
2019-03-05T09:01:35.039Z,6.97
2019-03-05T09:04:05.818Z,6.97
2019-03-05T09:06:36.098Z,6.93
2019-03-05T09:09:08.590Z,7.00
2019-03-05T09:11:38.867Z,7.42
2019-03-05T09:14:09.537Z,7.84
2019-03-05T09:16:40.107Z,7.93
2019-03-05T09:19:10.636Z,8.33
2019-03-05T09:21:42.180Z,8.95
2019-03-05T09:24:12.441Z,9.12
2019-03-05T09:26:50.708Z,9.16
2019-03-05T09:29:15.540Z,9.01
2019-03-05T09:31:46.099Z,8.68
2019-03-05T09:34:16.884Z,8.29
2019-03-05T09:36:51.162Z,8.06
2019-03-05T09:39:19.676Z,7.97
2019-03-05T09:41:49.962Z,7.84
2019-03-05T09:44:21.172Z,7.47
2019-03-05T09:46:52.163Z,7.40
2019-03-05T09:49:22.895Z,7.29
2019-03-05T09:51:53.949Z,7.11
2019-03-05T09:54:24.908Z,7.07
2019-03-05T09:56:56.674Z,7.16
2019-03-05T09:59:27.329Z,7.29
2019-03-05T10:01:57.926Z,7.30
2019-03-05T10:04:28.586Z,7.28
2019-03-05T10:06:59.839Z,7.29
2019-03-05T10:09:30.188Z,7.34
2019-03-05T10:12:00.785Z,7.35
2019-03-05T10:14:31.720Z,7.40
2019-03-05T10:17:02.230Z,7.57
2019-03-05T10:19:32.839Z,7.71
2019-03-05T10:22:03.687Z,7.66
2019-03-05T10:24:33.896Z,7.76
2019-03-05T10:27:04.502Z,8.07
2019-03-05T10:29:34.936Z,8.54
2019-03-05T10:32:05.521Z,8.52
2019-03-05T10:34:35.861Z,8.60
2019-03-05T10:37:14.475Z,8.72
2019-03-05T10:39:42.910Z,8.77
2019-03-05T10:42:13.399Z,8.81
2019-03-05T10:44:43.999Z,9.11
2019-03-05T10:47:14.309Z,9.01
2019-03-05T10:49:45.013Z,8.92
2019-03-05T10:52:15.864Z,8.84
2019-03-05T10:54:46.178Z,8.64
2019-03-05T10:57:16.519Z,8.31
2019-03-05T10:59:47.057Z,8.22
2019-03-05T11:02:18.024Z,8.28
2019-03-05T11:04:48.954Z,8.28
2019-03-05T11:07:19.410Z,8.38
2019-03-05T11:09:49.936Z,8.40
2019-03-05T11:12:20.309Z,8.08
2019-03-05T11:14:51.131Z,7.76
2019-03-05T11:17:21.706Z,7.46
2019-03-05T11:19:52.183Z,7.40
2019-03-05T11:22:22.770Z,7.36
2019-03-05T11:24:52.915Z,7.42
2019-03-05T11:27:23.875Z,7.46
2019-03-05T11:29:54.858Z,7.47
2019-03-05T11:32:26.110Z,7.56
2019-03-05T11:34:56.972Z,7.56
2019-03-05T11:37:27.209Z,7.60
2019-03-05T11:39:58.151Z,7.84
2019-03-05T11:42:29.260Z,8.08
2019-03-05T11:45:07.555Z,8.26
2019-03-05T11:47:35.475Z,8.39
2019-03-05T11:50:06.196Z,8.46
2019-03-05T11:52:36.709Z,8.28
2019-03-05T11:55:09.067Z,8.21
2019-03-05T11:57:39.618Z,8.14
2019-03-05T12:00:15.001Z,8.29
2019-03-05T12:02:45.696Z,8.42
2019-03-05T12:05:16.419Z,8.36
2019-03-05T12:07:47.086Z,8.24
2019-03-05T12:10:18.877Z,8.30
2019-03-05T12:12:49.609Z,8.69
2019-03-05T12:15:20.365Z,9.61
2019-03-05T12:17:51.082Z,9.68
2019-03-05T12:20:22.481Z,9.50
2019-03-05T12:22:53.223Z,9.33
2019-03-05T12:25:23.815Z,9.29
2019-03-05T12:27:54.360Z,9.62
2019-03-05T12:30:24.718Z,9.93
2019-03-05T12:32:55.317Z,9.83
2019-03-05T12:35:26.260Z,9.59
2019-03-05T12:37:56.567Z,9.61
2019-03-05T12:40:27.531Z,9.72
2019-03-05T12:42:58.055Z,9.58
2019-03-05T12:45:29.305Z,9.37
2019-03-05T12:47:59.559Z,9.16
2019-03-05T12:50:30.407Z,8.99
2019-03-05T12:53:01.084Z,8.95
2019-03-05T12:55:31.617Z,8.80
2019-03-05T12:58:01.851Z,8.95
2019-03-05T13:00:32.687Z,9.49
2019-03-05T13:03:02.918Z,9.77
2019-03-05T13:05:34.256Z,9.91
2019-03-05T13:08:04.919Z,9.73
2019-03-05T13:10:37.407Z,9.44
2019-03-05T13:13:10.404Z,9.44
2019-03-05T13:15:40.061Z,9.34
2019-03-05T13:18:10.694Z,9.13
2019-03-05T13:20:41.632Z,9.17
2019-03-05T13:23:11.986Z,9.29
2019-03-05T13:25:42.256Z,9.28
2019-03-05T13:28:13.546Z,9.20
2019-03-05T13:30:44.549Z,9.13
2019-03-05T13:33:15.384Z,9.09
2019-03-05T13:35:45.678Z,9.06
2019-03-05T13:38:16.174Z,9.01
2019-03-05T13:40:47.417Z,8.89
2019-03-05T13:43:17.728Z,8.82
2019-03-05T13:45:50.241Z,8.74
2019-03-05T13:49:02.456Z,8.60
2019-03-05T13:52:32.192Z,8.48
2019-03-05T13:55:26.915Z,8.38
2019-03-05T13:58:52.146Z,8.39
2019-03-05T14:01:22.357Z,8.44
2019-03-05T14:04:06.200Z,8.40
2019-03-05T14:07:09.147Z,8.36
2019-03-05T14:09:38.118Z,8.23
2019-03-05T14:12:09.152Z,8.19
2019-03-05T14:14:39.800Z,8.13
2019-03-05T14:17:29.112Z,8.07
2019-03-05T14:19:59.267Z,8.01
2019-03-05T14:22:29.877Z,7.95
2019-03-05T14:25:02.566Z,7.93
2019-03-05T14:27:32.702Z,7.87
2019-03-05T14:30:03.639Z,7.85
2019-03-05T14:32:37.505Z,7.81
2019-03-05T14:35:14.569Z,7.77
2019-03-05T14:37:45.072Z,7.76
2019-03-05T14:40:25.158Z,7.85
2019-03-05T14:42:56.074Z,7.98
2019-03-05T14:45:28.869Z,8.08
2019-03-05T14:48:00.463Z,8.21
2019-03-05T14:50:32.037Z,8.25
2019-03-05T14:53:02.979Z,8.28
2019-03-05T14:55:33.191Z,8.29
2019-03-05T14:58:03.986Z,8.39
2019-03-05T15:00:34.292Z,8.46
2019-03-05T15:03:04.798Z,8.53
2019-03-05T15:05:35.308Z,8.42
2019-03-05T15:08:06.309Z,8.39
2019-03-05T15:10:37.001Z,8.38
2019-03-05T15:13:15.698Z,8.38
2019-03-05T15:15:42.556Z,8.47
2019-03-05T15:18:13.093Z,8.51
2019-03-05T15:20:43.320Z,8.43
2019-03-05T15:23:22.404Z,8.38
2019-03-05T15:25:53.384Z,8.35
2019-03-05T15:28:25.416Z,8.33
2019-03-05T15:30:56.250Z,8.31
2019-03-05T15:33:26.884Z,8.27
2019-03-05T15:35:57.532Z,8.24
2019-03-05T15:38:28.508Z,8.27
2019-03-05T15:40:59.213Z,8.23
2019-03-05T15:43:34.306Z,8.08
2019-03-05T15:46:05.008Z,8.00
2019-03-05T15:48:35.954Z,7.91
2019-03-05T15:51:06.171Z,7.86
2019-03-05T15:53:37.206Z,7.80
2019-03-05T15:56:08.674Z,7.78
2019-03-05T15:58:39.488Z,7.74
2019-03-05T16:01:18.758Z,7.69
2019-03-05T16:03:43.302Z,7.65
2019-03-05T16:06:14.019Z,7.62
2019-03-05T16:08:45.118Z,7.59
2019-03-05T16:11:16.440Z,7.53
2019-03-05T16:13:47.189Z,7.45
2019-03-05T16:16:19.188Z,7.38
2019-03-05T16:18:50.140Z,7.35
2019-03-05T16:21:20.895Z,7.28
2019-03-05T16:23:51.743Z,7.26
2019-03-05T16:26:24.674Z,7.22
2019-03-05T16:28:55.833Z,7.17
2019-03-05T16:31:45.404Z,7.20
2019-03-05T16:34:25.503Z,7.19
2019-03-05T16:37:07.146Z,7.20
2019-03-05T16:39:57.075Z,7.21
2019-03-05T16:42:38.865Z,7.16
2019-03-05T16:45:16.758Z,7.13
2019-03-05T16:48:21.443Z,7.14
2019-03-05T16:51:05.556Z,7.16
2019-03-05T16:54:07.615Z,7.19
2019-03-05T16:57:09.666Z,7.22
2019-03-05T17:00:00.337Z,7.15
2019-03-05T17:02:53.744Z,7.10
2019-03-05T17:05:55.270Z,7.02
2019-03-05T17:08:47.637Z,6.94
2019-03-05T17:11:52.361Z,6.90
2019-03-05T17:14:23.023Z,6.86
2019-03-05T17:16:53.973Z,6.81
2019-03-05T17:19:24.211Z,6.78
2019-03-05T17:21:55.579Z,6.76
2019-03-05T17:24:26.092Z,6.74
2019-03-05T17:26:56.747Z,6.76
2019-03-05T17:29:27.256Z,6.73
2019-03-05T17:31:59.615Z,6.72
2019-03-05T17:34:30.298Z,6.70
2019-03-05T17:37:01.369Z,6.67
2019-03-05T17:39:32.442Z,6.64
2019-03-05T17:42:03.522Z,6.62
2019-03-05T17:44:34.998Z,6.61
2019-03-05T17:47:05.896Z,6.67
2019-03-05T17:49:36.778Z,6.68
2019-03-05T17:52:07.314Z,6.68
2019-03-05T17:54:38.741Z,6.69
2019-03-05T17:57:09.212Z,6.67
2019-03-05T17:59:39.791Z,6.63
2019-03-05T18:02:10.755Z,6.64
2019-03-05T18:04:41.444Z,6.63
2019-03-05T18:07:11.821Z,6.64
2019-03-05T18:09:42.718Z,6.64
2019-03-05T18:12:13.299Z,6.62
2019-03-05T18:14:43.548Z,6.62
2019-03-05T18:17:15.295Z,6.60
2019-03-05T18:19:45.977Z,6.55
2019-03-05T18:22:16.838Z,6.50
2019-03-05T18:24:47.452Z,6.46
2019-03-05T18:27:20.972Z,6.40
2019-03-05T18:29:56.845Z,6.36
2019-03-05T18:32:26.747Z,6.32
2019-03-05T18:34:59.386Z,6.26
2019-03-05T18:37:29.987Z,6.21
2019-03-05T18:40:02.481Z,6.17
2019-03-05T18:42:33.698Z,6.13
2019-03-05T18:45:04.440Z,6.06
2019-03-05T18:47:34.761Z,6.05
2019-03-05T18:50:05.726Z,6.03
2019-03-05T18:52:36.031Z,6.04
2019-03-05T18:55:07.874Z,6.02
2019-03-05T18:57:39.340Z,5.98
2019-03-05T19:00:13.145Z,5.96
2019-03-05T19:02:43.876Z,5.93
2019-03-05T19:05:15.379Z,5.90
2019-03-05T19:07:46.947Z,5.86
2019-03-05T19:10:18.512Z,5.85
2019-03-05T19:12:48.954Z,5.84
2019-03-05T19:15:20.649Z,5.84
2019-03-05T19:17:52.028Z,5.83
2019-03-05T19:20:23.798Z,5.86
2019-03-05T19:22:54.699Z,5.86
2019-03-05T19:25:27.915Z,5.84
2019-03-05T19:27:59.848Z,5.82
2019-03-05T19:30:33.479Z,5.83
2019-03-05T19:33:05.396Z,5.83
2019-03-05T19:35:36.324Z,5.83
2019-03-05T19:38:07.093Z,5.83
2019-03-05T19:40:39.980Z,5.81
2019-03-05T19:43:10.774Z,5.79
2019-03-05T19:45:47.963Z,5.79
2019-03-05T19:48:35.645Z,5.80
2019-03-05T19:51:13.619Z,5.78
2019-03-05T19:53:45.571Z,5.79
2019-03-05T19:56:19.074Z,5.82
2019-03-05T19:58:49.683Z,5.80
2019-03-05T20:01:26.102Z,5.80
2019-03-05T20:03:56.855Z,5.79
2019-03-05T20:06:27.616Z,5.80
2019-03-05T20:09:00.367Z,5.85
2019-03-05T20:11:31.266Z,5.90
2019-03-05T20:14:02.045Z,5.92
2019-03-05T20:16:32.941Z,5.94
2019-03-05T20:19:03.826Z,5.92
2019-03-05T20:21:34.087Z,5.94
2019-03-05T20:24:09.163Z,5.91
2019-03-05T20:26:42.501Z,5.94
2019-03-05T20:29:13.786Z,5.95
2019-03-05T20:31:44.523Z,5.99
2019-03-05T20:34:15.811Z,6.00
2019-03-05T20:36:47.274Z,5.98
2019-03-05T20:39:18.174Z,5.97
2019-03-05T20:41:49.289Z,5.96
2019-03-05T20:44:19.932Z,5.94
2019-03-05T20:46:50.185Z,5.95
2019-03-05T20:49:21.034Z,5.93
2019-03-05T20:51:51.465Z,5.92
2019-03-05T20:54:22.603Z,5.89
2019-03-05T20:56:53.240Z,5.86
2019-03-05T20:59:23.885Z,5.84
2019-03-05T21:01:54.617Z,5.80
2019-03-05T21:04:25.264Z,5.78
2019-03-05T21:06:56.493Z,5.75
2019-03-05T21:09:27.057Z,5.69
2019-03-05T21:11:57.971Z,5.65
2019-03-05T21:14:28.907Z,5.64
2019-03-05T21:16:59.668Z,5.61
2019-03-05T21:19:30.223Z,5.62
2019-03-05T21:22:02.305Z,5.59
2019-03-05T21:24:33.084Z,5.57
2019-03-05T21:27:03.946Z,5.57
2019-03-05T21:29:34.555Z,5.56
2019-03-05T21:32:05.243Z,5.56
2019-03-05T21:34:36.928Z,5.58
2019-03-05T21:37:08.001Z,5.59
2019-03-05T21:39:38.937Z,5.60
2019-03-05T21:42:09.337Z,5.63
2019-03-05T21:44:41.600Z,5.66
2019-03-05T21:47:12.547Z,5.68
2019-03-05T21:49:44.603Z,5.69
2019-03-05T21:52:15.279Z,5.70
2019-03-05T21:54:46.440Z,5.71
2019-03-05T21:57:17.324Z,5.72
2019-03-05T21:59:48.244Z,5.74
2019-03-05T22:02:22.864Z,5.76
2019-03-05T22:04:53.317Z,5.79
2019-03-05T22:07:24.153Z,5.80
2019-03-05T22:09:55.403Z,5.82
2019-03-05T22:12:26.564Z,5.82
2019-03-05T22:14:57.144Z,5.80
2019-03-05T22:17:27.825Z,5.77
2019-03-05T22:19:58.981Z,5.77
2019-03-05T22:22:30.645Z,5.75
2019-03-05T22:25:01.850Z,5.75
2019-03-05T22:27:32.540Z,5.73
2019-03-05T22:30:03.155Z,5.73
2019-03-05T22:32:35.749Z,5.69
2019-03-05T22:35:06.444Z,5.68
2019-03-05T22:37:37.088Z,5.69
2019-03-05T22:40:08.916Z,5.69
2019-03-05T22:42:40.038Z,5.70
2019-03-05T22:45:14.252Z,5.74
2019-03-05T22:47:45.390Z,5.74
2019-03-05T22:50:16.135Z,5.82
2019-03-05T22:52:46.788Z,5.89
2019-03-05T22:55:19.042Z,5.94
2019-03-05T22:57:53.137Z,5.96
2019-03-05T23:00:56.856Z,6.05
2019-03-05T23:03:28.236Z,6.06
2019-03-05T23:05:58.759Z,6.09
2019-03-05T23:08:29.802Z,6.06
2019-03-05T23:11:00.170Z,6.07
2019-03-05T23:13:31.570Z,6.06
2019-03-05T23:16:02.749Z,5.95
2019-03-05T23:18:33.242Z,5.93
2019-03-05T23:21:03.976Z,5.96
2019-03-05T23:23:34.756Z,5.98
2019-03-05T23:26:05.663Z,5.91
2019-03-05T23:28:36.020Z,5.88
2019-03-05T23:31:06.375Z,5.86
2019-03-05T23:33:50.055Z,5.85
2019-03-05T23:36:20.748Z,5.83
2019-03-05T23:38:51.417Z,5.74
2019-03-05T23:41:21.857Z,5.68
2019-03-05T23:43:52.356Z,5.61
2019-03-05T23:46:23.095Z,5.65
2019-03-05T23:48:53.454Z,5.68
2019-03-05T23:51:24.589Z,5.64
2019-03-05T23:53:55.129Z,5.58
2019-03-05T23:56:25.383Z,5.53
2019-03-05T23:58:58.110Z,5.49
